Detalii statie FIRST FARMS FAUREI [00001992]

Toti senzorii

Date Temperatura solului [C]Precipitatii [mm]Voltaj baterie [mV]Leaf Wetness [Min]HC Air temperature [C]HC Relative humidity [%]Punctul de roua [C]
medieminmaxsumaultimatimpmedieminmaxmediemediemin
2018-06-20 10:00:00 26.3 26 26.7 0 7186 29.84 29.13 31.08 47.39 17.2 16.4
2018-06-20 11:00:00 27.1 26.8 27.5 0 7186 31.13 30.31 31.7 41.49 16.2 15.2
2018-06-20 12:00:00 27.9 27.6 28.4 0 7186 32.05 31.32 32.73 36.26 14.9 14.3
2018-06-20 13:00:00 28.7 28.3 29.1 0 7186 32.74 31.58 33.46 34.9 14.9 14
2018-06-20 14:00:00 29.3 29.2 29.6 0 7186 33.22 32.24 33.87 33.22 14.6 14
2018-06-20 15:00:00 29.9 29.7 30.1 0 7176 33.63 32.87 34.09 32.28 14.4 14
2018-06-20 16:00:00 30.2 30.1 30.4 0 7118 33.45 32.64 34.62 32.45 14.4 13.8
2018-06-20 17:00:00 30.4 30.4 30.6 0 7166 33.33 32.33 34.36 32.76 14.3 13.7
2018-06-20 18:00:00 30.4 30.3 30.6 0 6992 30.12 29.28 31.38 45.19 16.7 16.2
2018-06-20 19:00:00 30.1 29.9 30.3 0 7166 29.89 29.28 30.52 46.74 17 16
2018-06-20 20:00:00 29.7 29.4 29.9 0 6834 28.68 27.62 29.68 52.21 17.7 16.2
2018-06-20 21:00:00 29.2 29 29.5 0 6834 26.03 24.76 27.33 56.96 16.5 16.2
2018-06-20 22:00:00 28.8 28.6 29.1 0 6826 24.19 23.75 24.62 66.68 17.4 17.1
2018-06-20 23:00:00 28.4 28.2 28.6 0 6816 24.51 24.26 24.98 65.97 17.6 17.1
2018-06-21 00:00:00 28.1 27.9 28.3 0 6816 24.49 24.08 24.92 66.43 17.6 17
2018-06-21 01:00:00 27.8 27.7 27.9 0 6806 24.39 24.11 24.8 73.87 19.3 18.5
2018-06-21 02:00:00 27.5 27.4 27.7 0 6796 24.76 24.47 24.99 69.97 18.7 18.5
2018-06-21 03:00:00 27.3 27.1 27.6 0 6786 24.16 23.73 24.46 71 18.3 18.2
2018-06-21 04:00:00 27 26.8 27.1 0 6796 23.33 23.1 23.69 75.53 18.6 18.5
2018-06-21 05:00:00 26.6 26.5 26.9 0 6796 23 22.79 23.14 77.06 18.6 18.4
2018-06-21 06:00:00 26.4 26.2 26.6 0 6864 23.32 22.8 23.95 74.72 18.4 18.1
2018-06-21 07:00:00 26.3 26.2 26.5 0 7050 24.83 24.15 25.59 64.95 17.6 17.2
2018-06-21 08:00:00 26.3 26.2 26.5 0 7176 26.42 25.69 26.87 56.51 16.8 16.5
2018-06-21 09:00:00 26.7 26.4 27 0 7186 28.74 27.32 30.23 47.86 16.3 15.9
2018-06-21 10:00:00 27.4 27.1 27.8 0 7186 30.68 29.95 31.53 41.13 15.7 15.2
2018-06-21 11:00:00 28.3 27.8 28.9 0 7186 31.86 30.95 33.11 39.14 16 15.5
2018-06-21 12:00:00 29.4 29.1 29.8 0 7176 32.98 31.99 34.21 36.84 16 15.5
2018-06-21 13:00:00 30.4 30 30.8 0 7176 34.17 31.76 35.96 34.36 15.9 15.3
2018-06-21 14:00:00 31.4 31 31.8 0 7176 60 34.63 33.64 35.64 32.59 15.5 15.1
2018-06-21 15:00:00 31.9 31.8 32.1 0 7186 31.52 29.98 34.79 42.04 16.6 14.7
2018-06-21 16:00:00 31.6 31.3 31.9 0 7176 30.7 29.92 31.7 44.43 16.9 16.2
2018-06-21 17:00:00 31.1 31 31.3 0 7020 30.18 29.79 30.89 45.27 16.7 16.3
2018-06-21 18:00:00 30.7 30.6 31 0 6854 28.94 27.85 29.74 49.05 16.9 16.1
2018-06-21 19:00:00 30.3 30.2 30.5 0 7040 27.14 26.85 28.17 60.25 18.6 17.9
2018-06-21 20:00:00 30 29.7 30.3 0 6834 26.49 26.02 26.81 62.62 18.6 18.4
2018-06-21 21:00:00 29.5 29.3 29.7 0 6834 24.92 24.49 25.85 71.91 19.3 18.7
2018-06-21 22:00:00 29.1 28.9 29.3 0 6826 24.21 23.53 24.64 80.17 20.4 19.9
2018-06-21 23:00:00 28.6 28.3 29 0 6816 22.87 22.38 23.48 89.7 20.9 20.8
2018-06-22 00:00:00 28.2 28 28.5 0 6816 21.5 20.88 22.16 98.2 21.1 20.8
2018-06-22 01:00:00 27.8 27.6 28.1 0 6806 20.4 19.89 21.09 100 20.3 19.8
2018-06-22 02:00:00 27.4 27.3 27.7 0 6796 19.46 19.11 19.95 100 19.4 19.1
2018-06-22 03:00:00 27.1 26.9 27.3 0 6786 18.93 18.71 19.1 100 18.9 18.7
2018-06-22 04:00:00 26.7 26.5 26.9 0 6786 18.79 18.54 19.01 100 18.7 18.5
2018-06-22 05:00:00 26.3 26.1 26.5 0 6796 18.14 17.89 18.77 100 18 17.8
2018-06-22 06:00:00 26.1 25.9 26.3 0 6874 18.77 17.86 20.11 100 18.7 17.8
2018-06-22 07:00:00 25.9 25.7 26.1 0 7040 21.72 20.3 22.58 99.98 21.6 20.3
2018-06-22 08:00:00 25.9 25.9 25.9 0 7098 23.25 22.71 23.84 94.52 22.2 21.5
2018-06-22 09:00:00 26 25.9 26.3 0 7196 25.98 24.07 27.59 73.67 20.6 17.7